KWRL

Worland Municipal Airport

Worland, Wyoming, USA
KWRL 212331Z 2200/2224 03007KT P6SM SCT200 FM220300 14006KT P6SM SCT200
Issued Valid From Valid To
Sep-21 @ 23:31 UTC
(4 hours ago)
Sep-22 @ 00:00 UTC
(3 hours ago)
Sep-23 @ 00:00 UTC
(in 21 hours)
to
to
KWRL 212331Z 2200/2224 03007KT P6SM SCT200 FM220300 14006KT P6SM SCT200
Issued Sep-21 @ 23:31 UTC
(4 hours ago)
Valid From Sep-22 @ 00:00 UTC
(3 hours ago)
Valid To Sep-23 @ 00:00 UTC
(in 21 hours)
-
-